sensor_id;sensor_type;location;lat;lon;timestamp;temperature;humidity
57108;DHT22;42987;52.916;6.542;2023-07-02T00:01:37;15.80;99.90
57108;DHT22;42987;52.916;6.542;2023-07-02T00:04:03;15.70;99.90
57108;DHT22;42987;52.916;6.542;2023-07-02T00:06:29;15.70;99.90
57108;DHT22;42987;52.916;6.542;2023-07-02T00:08:58;15.70;99.90
57108;DHT22;42987;52.916;6.542;2023-07-02T00:11:23;15.70;99.90
57108;DHT22;42987;52.916;6.542;2023-07-02T00:13:49;15.70;99.90
57108;DHT22;42987;52.916;6.542;2023-07-02T00:16:17;15.70;99.90
57108;DHT22;42987;52.916;6.542;2023-07-02T00:18:43;15.70;99.90
57108;DHT22;42987;52.916;6.542;2023-07-02T00:21:09;15.70;99.90
57108;DHT22;42987;52.916;6.542;2023-07-02T00:23:38;15.70;99.90
57108;DHT22;42987;52.916;6.542;2023-07-02T00:26:05;15.70;99.90
57108;DHT22;42987;52.916;6.542;2023-07-02T00:28:30;15.70;99.90
57108;DHT22;42987;52.916;6.542;2023-07-02T00:30:59;15.70;99.90
57108;DHT22;42987;52.916;6.542;2023-07-02T00:33:26;15.70;99.90
57108;DHT22;42987;52.916;6.542;2023-07-02T00:35:52;15.70;99.90
57108;DHT22;42987;52.916;6.542;2023-07-02T00:38:18;15.70;99.90
57108;DHT22;42987;52.916;6.542;2023-07-02T00:40:44;15.70;99.90
57108;DHT22;42987;52.916;6.542;2023-07-02T00:43:09;15.60;99.90
57108;DHT22;42987;52.916;6.542;2023-07-02T00:45:39;15.60;99.90
57108;DHT22;42987;52.916;6.542;2023-07-02T00:48:06;15.50;99.90
57108;DHT22;42987;52.916;6.542;2023-07-02T00:50:32;15.50;99.90
57108;DHT22;42987;52.916;6.542;2023-07-02T00:52:58;15.40;99.90
57108;DHT22;42987;52.916;6.542;2023-07-02T00:55:24;15.40;99.90
57108;DHT22;42987;52.916;6.542;2023-07-02T00:57:50;15.30;99.90
57108;DHT22;42987;52.916;6.542;2023-07-02T01:00:16;15.20;99.90
57108;DHT22;42987;52.916;6.542;2023-07-02T01:02:42;15.20;99.90
57108;DHT22;42987;52.916;6.542;2023-07-02T01:05:14;15.10;99.90
57108;DHT22;42987;52.916;6.542;2023-07-02T01:07:40;15.00;99.90
57108;DHT22;42987;52.916;6.542;2023-07-02T01:10:06;15.00;99.90
57108;DHT22;42987;52.916;6.542;2023-07-02T01:12:33;14.90;99.90
57108;DHT22;42987;52.916;6.542;2023-07-02T01:15:02;14.90;99.90
57108;DHT22;42987;52.916;6.542;2023-07-02T01:17:32;14.90;99.90
57108;DHT22;42987;52.916;6.542;2023-07-02T01:20:09;14.80;99.90
57108;DHT22;42987;52.916;6.542;2023-07-02T01:22:36;14.80;99.90
57108;DHT22;42987;52.916;6.542;2023-07-02T01:25:05;14.70;99.90
57108;DHT22;42987;52.916;6.542;2023-07-02T01:27:31;14.70;99.90
57108;DHT22;42987;52.916;6.542;2023-07-02T01:29:57;14.60;99.90
57108;DHT22;42987;52.916;6.542;2023-07-02T01:32:23;14.70;99.90
57108;DHT22;42987;52.916;6.542;2023-07-02T01:34:49;14.60;99.90
57108;DHT22;42987;52.916;6.542;2023-07-02T01:37:18;14.50;99.90
57108;DHT22;42987;52.916;6.542;2023-07-02T01:39:44;14.50;99.90
57108;DHT22;42987;52.916;6.542;2023-07-02T01:42:12;14.40;99.90
57108;DHT22;42987;52.916;6.542;2023-07-02T01:44:39;14.40;99.90
57108;DHT22;42987;52.916;6.542;2023-07-02T01:47:05;14.30;99.90
57108;DHT22;42987;52.916;6.542;2023-07-02T01:49:31;14.30;99.90
57108;DHT22;42987;52.916;6.542;2023-07-02T01:51:58;14.20;99.90
57108;DHT22;42987;52.916;6.542;2023-07-02T01:54:25;14.20;99.90
57108;DHT22;42987;52.916;6.542;2023-07-02T01:56:54;14.20;99.90
57108;DHT22;42987;52.916;6.542;2023-07-02T01:59:20;14.10;99.90
57108;DHT22;42987;52.916;6.542;2023-07-02T02:01:46;14.10;99.90
57108;DHT22;42987;52.916;6.542;2023-07-02T02:04:12;14.00;99.90
57108;DHT22;42987;52.916;6.542;2023-07-02T02:06:39;13.90;99.90
57108;DHT22;42987;52.916;6.542;2023-07-02T02:09:05;13.80;99.90
57108;DHT22;42987;52.916;6.542;2023-07-02T02:11:32;13.80;99.90
57108;DHT22;42987;52.916;6.542;2023-07-02T02:13:58;13.70;99.90
57108;DHT22;42987;52.916;6.542;2023-07-02T02:16:27;13.60;99.90
57108;DHT22;42987;52.916;6.542;2023-07-02T02:18:53;13.60;99.90
57108;DHT22;42987;52.916;6.542;2023-07-02T02:21:22;13.60;99.90
57108;DHT22;42987;52.916;6.542;2023-07-02T02:23:48;13.50;99.90
57108;DHT22;42987;52.916;6.542;2023-07-02T02:26:14;13.50;99.90
57108;DHT22;42987;52.916;6.542;2023-07-02T02:28:41;13.40;99.90
57108;DHT22;42987;52.916;6.542;2023-07-02T02:31:07;13.40;99.90
57108;DHT22;42987;52.916;6.542;2023-07-02T02:33:33;13.30;99.90
57108;DHT22;42987;52.916;6.542;2023-07-02T02:35:59;13.30;99.90
57108;DHT22;42987;52.916;6.542;2023-07-02T02:38:24;13.20;99.90
57108;DHT22;42987;52.916;6.542;2023-07-02T02:40:50;13.20;99.90
57108;DHT22;42987;52.916;6.542;2023-07-02T02:43:16;13.10;99.90
57108;DHT22;42987;52.916;6.542;2023-07-02T02:45:42;13.10;99.90
57108;DHT22;42987;52.916;6.542;2023-07-02T02:48:08;13.10;99.90
57108;DHT22;42987;52.916;6.542;2023-07-02T02:50:34;13.00;99.90
57108;DHT22;42987;52.916;6.542;2023-07-02T02:53:00;13.10;99.90
57108;DHT22;42987;52.916;6.542;2023-07-02T02:55:25;13.10;99.90
57108;DHT22;42987;52.916;6.542;2023-07-02T02:57:52;13.10;99.90
57108;DHT22;42987;52.916;6.542;2023-07-02T03:00:18;13.10;99.90
57108;DHT22;42987;52.916;6.542;2023-07-02T03:02:43;13.20;99.90
57108;DHT22;42987;52.916;6.542;2023-07-02T03:05:09;13.20;99.90
57108;DHT22;42987;52.916;6.542;2023-07-02T03:07:35;13.20;99.90
57108;DHT22;42987;52.916;6.542;2023-07-02T03:10:01;13.20;99.90
57108;DHT22;42987;52.916;6.542;2023-07-02T03:12:26;13.20;99.90
57108;DHT22;42987;52.916;6.542;2023-07-02T03:14:52;13.20;99.90
57108;DHT22;42987;52.916;6.542;2023-07-02T03:17:23;13.20;99.90
57108;DHT22;42987;52.916;6.542;2023-07-02T03:19:49;13.30;99.90
57108;DHT22;42987;52.916;6.542;2023-07-02T03:22:15;13.30;99.90
57108;DHT22;42987;52.916;6.542;2023-07-02T03:24:40;13.30;99.90
57108;DHT22;42987;52.916;6.542;2023-07-02T03:27:07;13.30;99.90
57108;DHT22;42987;52.916;6.542;2023-07-02T03:29:34;13.30;99.90
57108;DHT22;42987;52.916;6.542;2023-07-02T03:32:01;13.40;99.90
57108;DHT22;42987;52.916;6.542;2023-07-02T03:34:27;13.40;99.90
57108;DHT22;42987;52.916;6.542;2023-07-02T03:36:53;13.40;99.90
57108;DHT22;42987;52.916;6.542;2023-07-02T03:39:18;13.50;99.90
57108;DHT22;42987;52.916;6.542;2023-07-02T03:41:44;13.50;99.90
57108;DHT22;42987;52.916;6.542;2023-07-02T03:44:10;13.60;99.90
57108;DHT22;42987;52.916;6.542;2023-07-02T03:46:36;13.60;99.90
57108;DHT22;42987;52.916;6.542;2023-07-02T03:49:03;13.60;99.90
57108;DHT22;42987;52.916;6.542;2023-07-02T03:51:32;13.60;99.90
57108;DHT22;42987;52.916;6.542;2023-07-02T03:53:58;13.70;99.90
57108;DHT22;42987;52.916;6.542;2023-07-02T03:56:24;13.70;99.90
57108;DHT22;42987;52.916;6.542;2023-07-02T03:58:50;13.70;99.90
57108;DHT22;42987;52.916;6.542;2023-07-02T04:01:16;13.70;99.90
57108;DHT22;42987;52.916;6.542;2023-07-02T04:03:49;13.80;99.90
57108;DHT22;42987;52.916;6.542;2023-07-02T04:06:15;13.80;99.90
57108;DHT22;42987;52.916;6.542;2023-07-02T04:08:41;13.80;99.90
57108;DHT22;42987;52.916;6.542;2023-07-02T04:11:07;13.80;99.90
57108;DHT22;42987;52.916;6.542;2023-07-02T04:13:33;13.80;99.90
57108;DHT22;42987;52.916;6.542;2023-07-02T04:15:59;13.80;99.90
57108;DHT22;42987;52.916;6.542;2023-07-02T04:18:24;13.80;99.90
57108;DHT22;42987;52.916;6.542;2023-07-02T04:20:50;13.80;99.90
57108;DHT22;42987;52.916;6.542;2023-07-02T04:23:16;13.70;99.90
57108;DHT22;42987;52.916;6.542;2023-07-02T04:25:42;13.80;99.90
57108;DHT22;42987;52.916;6.542;2023-07-02T04:28:07;13.80;99.90
57108;DHT22;42987;52.916;6.542;2023-07-02T04:30:33;13.80;99.90
57108;DHT22;42987;52.916;6.542;2023-07-02T04:33:00;13.80;99.90
57108;DHT22;42987;52.916;6.542;2023-07-02T04:35:26;13.90;99.90
57108;DHT22;42987;52.916;6.542;2023-07-02T04:37:52;13.90;99.90
57108;DHT22;42987;52.916;6.542;2023-07-02T04:40:17;14.00;99.90
57108;DHT22;42987;52.916;6.542;2023-07-02T04:42:44;14.10;99.90
57108;DHT22;42987;52.916;6.542;2023-07-02T04:45:13;14.10;99.90
57108;DHT22;42987;52.916;6.542;2023-07-02T04:47:45;14.10;99.90
57108;DHT22;42987;52.916;6.542;2023-07-02T04:50:11;14.10;99.90
57108;DHT22;42987;52.916;6.542;2023-07-02T04:52:39;14.10;99.90
57108;DHT22;42987;52.916;6.542;2023-07-02T04:55:06;14.10;99.90
57108;DHT22;42987;52.916;6.542;2023-07-02T04:57:32;14.20;99.90
57108;DHT22;42987;52.916;6.542;2023-07-02T04:59:58;14.20;99.90
57108;DHT22;42987;52.916;6.542;2023-07-02T05:02:23;14.20;99.90
57108;DHT22;42987;52.916;6.542;2023-07-02T05:04:49;14.20;99.90
57108;DHT22;42987;52.916;6.542;2023-07-02T05:07:19;14.20;99.90
57108;DHT22;42987;52.916;6.542;2023-07-02T05:09:45;14.30;99.90
57108;DHT22;42987;52.916;6.542;2023-07-02T05:12:11;14.30;99.90
57108;DHT22;42987;52.916;6.542;2023-07-02T05:14:40;14.30;99.90
57108;DHT22;42987;52.916;6.542;2023-07-02T05:17:05;14.40;99.90
57108;DHT22;42987;52.916;6.542;2023-07-02T05:19:31;14.40;99.90
57108;DHT22;42987;52.916;6.542;2023-07-02T05:21:57;14.50;99.90
57108;DHT22;42987;52.916;6.542;2023-07-02T05:24:22;14.60;99.90
57108;DHT22;42987;52.916;6.542;2023-07-02T05:26:48;14.60;99.90
57108;DHT22;42987;52.916;6.542;2023-07-02T05:29:16;14.70;99.90
57108;DHT22;42987;52.916;6.542;2023-07-02T05:31:42;14.80;99.90
57108;DHT22;42987;52.916;6.542;2023-07-02T05:34:08;14.80;99.90
57108;DHT22;42987;52.916;6.542;2023-07-02T05:36:33;14.90;99.90
57108;DHT22;42987;52.916;6.542;2023-07-02T05:39:00;15.00;99.90
57108;DHT22;42987;52.916;6.542;2023-07-02T05:41:26;15.00;99.90
57108;DHT22;42987;52.916;6.542;2023-07-02T05:43:57;15.10;99.90
57108;DHT22;42987;52.916;6.542;2023-07-02T05:46:23;15.20;99.90
57108;DHT22;42987;52.916;6.542;2023-07-02T05:48:49;15.30;99.90
57108;DHT22;42987;52.916;6.542;2023-07-02T05:51:20;15.40;99.90
57108;DHT22;42987;52.916;6.542;2023-07-02T05:53:47;15.50;99.90
57108;DHT22;42987;52.916;6.542;2023-07-02T05:56:13;15.60;99.90
57108;DHT22;42987;52.916;6.542;2023-07-02T05:58:39;15.70;99.90
57108;DHT22;42987;52.916;6.542;2023-07-02T06:01:05;15.70;99.90
57108;DHT22;42987;52.916;6.542;2023-07-02T06:03:31;15.70;99.90
57108;DHT22;42987;52.916;6.542;2023-07-02T06:05:57;15.80;99.90
57108;DHT22;42987;52.916;6.542;2023-07-02T06:08:23;15.90;99.90
57108;DHT22;42987;52.916;6.542;2023-07-02T06:10:49;16.00;99.90
57108;DHT22;42987;52.916;6.542;2023-07-02T06:13:15;16.00;99.90
57108;DHT22;42987;52.916;6.542;2023-07-02T06:15:41;16.10;99.90
57108;DHT22;42987;52.916;6.542;2023-07-02T06:18:07;16.20;99.90
57108;DHT22;42987;52.916;6.542;2023-07-02T06:20:33;16.20;99.90
57108;DHT22;42987;52.916;6.542;2023-07-02T06:22:58;16.40;99.90
57108;DHT22;42987;52.916;6.542;2023-07-02T06:25:24;16.40;99.90
57108;DHT22;42987;52.916;6.542;2023-07-02T06:27:50;16.40;99.90
57108;DHT22;42987;52.916;6.542;2023-07-02T06:30:17;16.40;99.90
57108;DHT22;42987;52.916;6.542;2023-07-02T06:32:43;16.30;99.90
57108;DHT22;42987;52.916;6.542;2023-07-02T06:35:09;16.20;99.90
57108;DHT22;42987;52.916;6.542;2023-07-02T06:37:34;16.10;99.90
57108;DHT22;42987;52.916;6.542;2023-07-02T06:40:00;16.00;99.90
57108;DHT22;42987;52.916;6.542;2023-07-02T06:42:26;16.00;99.90
57108;DHT22;42987;52.916;6.542;2023-07-02T06:44:52;15.90;99.90
57108;DHT22;42987;52.916;6.542;2023-07-02T06:47:18;16.00;99.90
57108;DHT22;42987;52.916;6.542;2023-07-02T06:49:43;16.10;99.90
57108;DHT22;42987;52.916;6.542;2023-07-02T06:52:09;16.30;99.90
57108;DHT22;42987;52.916;6.542;2023-07-02T06:54:35;16.60;99.90
57108;DHT22;42987;52.916;6.542;2023-07-02T06:57:01;16.70;99.90
57108;DHT22;42987;52.916;6.542;2023-07-02T06:59:27;16.80;99.90
57108;DHT22;42987;52.916;6.542;2023-07-02T07:01:52;16.80;99.90
57108;DHT22;42987;52.916;6.542;2023-07-02T07:04:18;16.80;99.90
57108;DHT22;42987;52.916;6.542;2023-07-02T07:06:44;16.70;99.90
57108;DHT22;42987;52.916;6.542;2023-07-02T07:09:10;16.70;99.90
57108;DHT22;42987;52.916;6.542;2023-07-02T07:11:38;16.60;99.90
57108;DHT22;42987;52.916;6.542;2023-07-02T07:14:04;16.60;99.90
57108;DHT22;42987;52.916;6.542;2023-07-02T07:16:30;16.50;99.90
57108;DHT22;42987;52.916;6.542;2023-07-02T07:18:56;16.50;99.90
57108;DHT22;42987;52.916;6.542;2023-07-02T07:21:21;16.50;99.90
57108;DHT22;42987;52.916;6.542;2023-07-02T07:23:48;16.70;99.90
57108;DHT22;42987;52.916;6.542;2023-07-02T07:26:14;16.90;99.90
57108;DHT22;42987;52.916;6.542;2023-07-02T07:28:40;17.20;99.90
57108;DHT22;42987;52.916;6.542;2023-07-02T07:31:06;17.40;99.90
57108;DHT22;42987;52.916;6.542;2023-07-02T07:33:32;17.70;99.90
57108;DHT22;42987;52.916;6.542;2023-07-02T07:35:58;18.00;99.90
57108;DHT22;42987;52.916;6.542;2023-07-02T07:38:23;18.10;99.90
57108;DHT22;42987;52.916;6.542;2023-07-02T07:40:49;18.40;99.90
57108;DHT22;42987;52.916;6.542;2023-07-02T07:43:15;18.50;99.90
57108;DHT22;42987;52.916;6.542;2023-07-02T07:45:41;18.50;99.90
57108;DHT22;42987;52.916;6.542;2023-07-02T07:48:07;18.40;99.90
57108;DHT22;42987;52.916;6.542;2023-07-02T07:50:32;18.40;99.90
57108;DHT22;42987;52.916;6.542;2023-07-02T07:52:58;18.50;99.90
57108;DHT22;42987;52.916;6.542;2023-07-02T07:55:24;18.60;99.90
57108;DHT22;42987;52.916;6.542;2023-07-02T07:57:51;18.70;99.90
57108;DHT22;42987;52.916;6.542;2023-07-02T08:00:17;18.90;99.90
57108;DHT22;42987;52.916;6.542;2023-07-02T08:02:46;18.90;99.90
57108;DHT22;42987;52.916;6.542;2023-07-02T08:05:16;18.80;99.90
57108;DHT22;42987;52.916;6.542;2023-07-02T08:07:42;18.90;99.90
57108;DHT22;42987;52.916;6.542;2023-07-02T08:10:08;18.90;99.90
57108;DHT22;42987;52.916;6.542;2023-07-02T08:12:34;18.90;99.80
57108;DHT22;42987;52.916;6.542;2023-07-02T08:15:00;18.90;99.90
57108;DHT22;42987;52.916;6.542;2023-07-02T08:17:26;19.00;99.90
57108;DHT22;42987;52.916;6.542;2023-07-02T08:19:52;19.20;99.90
57108;DHT22;42987;52.916;6.542;2023-07-02T08:22:18;19.10;99.90
57108;DHT22;42987;52.916;6.542;2023-07-02T08:24:43;19.00;99.90
57108;DHT22;42987;52.916;6.542;2023-07-02T08:27:09;19.00;99.90
57108;DHT22;42987;52.916;6.542;2023-07-02T08:29:39;19.10;99.90
57108;DHT22;42987;52.916;6.542;2023-07-02T08:32:05;19.10;99.90
57108;DHT22;42987;52.916;6.542;2023-07-02T08:34:31;19.00;99.90
57108;DHT22;42987;52.916;6.542;2023-07-02T08:36:56;18.90;99.90
57108;DHT22;42987;52.916;6.542;2023-07-02T08:39:22;18.70;99.90
57108;DHT22;42987;52.916;6.542;2023-07-02T08:41:48;18.40;99.90
57108;DHT22;42987;52.916;6.542;2023-07-02T08:44:16;18.20;99.90
57108;DHT22;42987;52.916;6.542;2023-07-02T08:46:44;18.10;99.90
57108;DHT22;42987;52.916;6.542;2023-07-02T08:49:10;18.00;99.90
57108;DHT22;42987;52.916;6.542;2023-07-02T08:51:36;17.90;99.90
57108;DHT22;42987;52.916;6.542;2023-07-02T08:54:03;18.00;99.90
57108;DHT22;42987;52.916;6.542;2023-07-02T08:56:29;17.90;99.90
57108;DHT22;42987;52.916;6.542;2023-07-02T08:58:55;17.90;99.90
57108;DHT22;42987;52.916;6.542;2023-07-02T09:01:21;17.80;99.90
57108;DHT22;42987;52.916;6.542;2023-07-02T09:03:48;17.70;99.90
57108;DHT22;42987;52.916;6.542;2023-07-02T09:06:17;17.60;99.90
57108;DHT22;42987;52.916;6.542;2023-07-02T09:08:43;17.50;99.90
57108;DHT22;42987;52.916;6.542;2023-07-02T09:11:14;17.30;99.90
57108;DHT22;42987;52.916;6.542;2023-07-02T09:13:49;17.20;99.90
57108;DHT22;42987;52.916;6.542;2023-07-02T09:16:41;17.20;99.90
57108;DHT22;42987;52.916;6.542;2023-07-02T09:19:08;17.50;99.90
57108;DHT22;42987;52.916;6.542;2023-07-02T09:24:22;18.10;99.90
57108;DHT22;42987;52.916;6.542;2023-07-02T09:26:55;18.40;99.90
57108;DHT22;42987;52.916;6.542;2023-07-02T09:31:55;19.00;99.90
57108;DHT22;42987;52.916;6.542;2023-07-02T09:34:30;19.20;99.90
57108;DHT22;42987;52.916;6.542;2023-07-02T09:36:57;19.30;99.90
57108;DHT22;42987;52.916;6.542;2023-07-02T09:39:32;19.40;99.90
57108;DHT22;42987;52.916;6.542;2023-07-02T09:42:00;19.30;99.90
57108;DHT22;42987;52.916;6.542;2023-07-02T09:44:30;19.20;99.90
57108;DHT22;42987;52.916;6.542;2023-07-02T09:49:27;18.90;99.90
57108;DHT22;42987;52.916;6.542;2023-07-02T09:51:54;18.90;99.90
57108;DHT22;42987;52.916;6.542;2023-07-02T09:54:20;18.90;99.90
57108;DHT22;42987;52.916;6.542;2023-07-02T09:56:46;18.90;99.90
57108;DHT22;42987;52.916;6.542;2023-07-02T09:59:13;18.90;99.90
57108;DHT22;42987;52.916;6.542;2023-07-02T10:01:40;19.00;99.90
57108;DHT22;42987;52.916;6.542;2023-07-02T10:04:16;19.00;99.90
57108;DHT22;42987;52.916;6.542;2023-07-02T10:06:48;19.00;99.90
57108;DHT22;42987;52.916;6.542;2023-07-02T10:09:15;18.90;99.90
57108;DHT22;42987;52.916;6.542;2023-07-02T10:11:41;18.80;99.90
57108;DHT22;42987;52.916;6.542;2023-07-02T10:14:07;18.70;99.90
57108;DHT22;42987;52.916;6.542;2023-07-02T10:16:32;18.70;99.90
57108;DHT22;42987;52.916;6.542;2023-07-02T10:19:11;18.60;99.90
57108;DHT22;42987;52.916;6.542;2023-07-02T10:21:37;18.50;99.90
57108;DHT22;42987;52.916;6.542;2023-07-02T10:24:29;18.50;99.90
57108;DHT22;42987;52.916;6.542;2023-07-02T10:27:02;18.50;99.90
57108;DHT22;42987;52.916;6.542;2023-07-02T10:29:31;18.60;99.90
57108;DHT22;42987;52.916;6.542;2023-07-02T10:31:57;18.80;99.90
57108;DHT22;42987;52.916;6.542;2023-07-02T10:34:33;18.80;99.90
57108;DHT22;42987;52.916;6.542;2023-07-02T10:37:03;18.80;99.90
57108;DHT22;42987;52.916;6.542;2023-07-02T10:39:38;18.70;99.90
57108;DHT22;42987;52.916;6.542;2023-07-02T10:42:07;18.60;99.90
57108;DHT22;42987;52.916;6.542;2023-07-02T10:44:33;18.60;99.90
57108;DHT22;42987;52.916;6.542;2023-07-02T10:46:59;18.70;99.90
57108;DHT22;42987;52.916;6.542;2023-07-02T10:49:32;19.00;99.90
57108;DHT22;42987;52.916;6.542;2023-07-02T10:52:02;19.30;99.90
57108;DHT22;42987;52.916;6.542;2023-07-02T10:54:46;19.40;99.90
57108;DHT22;42987;52.916;6.542;2023-07-02T10:57:18;19.40;99.90
57108;DHT22;42987;52.916;6.542;2023-07-02T10:59:47;19.20;99.90
57108;DHT22;42987;52.916;6.542;2023-07-02T11:02:13;19.00;99.90
57108;DHT22;42987;52.916;6.542;2023-07-02T11:04:39;18.90;99.90
57108;DHT22;42987;52.916;6.542;2023-07-02T11:07:05;18.70;99.90
57108;DHT22;42987;52.916;6.542;2023-07-02T11:09:34;18.60;99.90
57108;DHT22;42987;52.916;6.542;2023-07-02T11:12:01;18.50;99.90
57108;DHT22;42987;52.916;6.542;2023-07-02T11:14:34;18.60;99.90
57108;DHT22;42987;52.916;6.542;2023-07-02T11:17:03;18.60;99.90
57108;DHT22;42987;52.916;6.542;2023-07-02T11:19:31;18.70;99.90
57108;DHT22;42987;52.916;6.542;2023-07-02T11:21:58;18.70;99.90
57108;DHT22;42987;52.916;6.542;2023-07-02T11:24:35;18.90;99.90
57108;DHT22;42987;52.916;6.542;2023-07-02T11:27:02;18.90;99.90
57108;DHT22;42987;52.916;6.542;2023-07-02T11:29:29;18.90;99.90
57108;DHT22;42987;52.916;6.542;2023-07-02T11:32:05;19.00;99.90
57108;DHT22;42987;52.916;6.542;2023-07-02T11:34:31;19.00;99.90
57108;DHT22;42987;52.916;6.542;2023-07-02T11:36:56;19.00;99.90
57108;DHT22;42987;52.916;6.542;2023-07-02T11:39:22;19.30;99.90
57108;DHT22;42987;52.916;6.542;2023-07-02T11:41:48;19.70;99.90
57108;DHT22;42987;52.916;6.542;2023-07-02T11:44:16;20.00;99.90
57108;DHT22;42987;52.916;6.542;2023-07-02T11:46:42;20.20;99.90
57108;DHT22;42987;52.916;6.542;2023-07-02T11:49:08;20.20;99.80
57108;DHT22;42987;52.916;6.542;2023-07-02T11:51:36;20.00;99.50
57108;DHT22;42987;52.916;6.542;2023-07-02T11:54:05;19.80;99.90
57108;DHT22;42987;52.916;6.542;2023-07-02T11:56:32;19.60;99.50
57108;DHT22;42987;52.916;6.542;2023-07-02T11:58:58;19.50;99.90
57108;DHT22;42987;52.916;6.542;2023-07-02T12:01:24;19.60;99.90
57108;DHT22;42987;52.916;6.542;2023-07-02T12:03:50;19.70;99.90
57108;DHT22;42987;52.916;6.542;2023-07-02T12:06:16;19.80;99.90
57108;DHT22;42987;52.916;6.542;2023-07-02T12:08:42;19.80;99.90
57108;DHT22;42987;52.916;6.542;2023-07-02T12:11:08;19.70;95.80
57108;DHT22;42987;52.916;6.542;2023-07-02T12:13:34;19.70;94.40
57108;DHT22;42987;52.916;6.542;2023-07-02T12:16:00;19.80;95.90
57108;DHT22;42987;52.916;6.542;2023-07-02T12:18:26;20.00;97.40
57108;DHT22;42987;52.916;6.542;2023-07-02T12:20:52;20.20;96.30
57108;DHT22;42987;52.916;6.542;2023-07-02T12:23:18;20.20;94.40
57108;DHT22;42987;52.916;6.542;2023-07-02T12:25:44;20.10;94.10
57108;DHT22;42987;52.916;6.542;2023-07-02T12:28:09;19.90;93.40
57108;DHT22;42987;52.916;6.542;2023-07-02T12:30:39;19.80;93.30
57108;DHT22;42987;52.916;6.542;2023-07-02T12:33:05;19.70;94.50
57108;DHT22;42987;52.916;6.542;2023-07-02T12:35:30;19.60;94.50
57108;DHT22;42987;52.916;6.542;2023-07-02T12:37:56;19.50;94.70
57108;DHT22;42987;52.916;6.542;2023-07-02T12:40:22;19.50;94.50
57108;DHT22;42987;52.916;6.542;2023-07-02T12:42:48;19.60;94.20
57108;DHT22;42987;52.916;6.542;2023-07-02T12:45:17;19.50;94.20
57108;DHT22;42987;52.916;6.542;2023-07-02T12:47:43;19.40;94.20
57108;DHT22;42987;52.916;6.542;2023-07-02T12:50:10;19.40;95.40
57108;DHT22;42987;52.916;6.542;2023-07-02T12:52:36;19.40;95.10
57108;DHT22;42987;52.916;6.542;2023-07-02T12:55:03;19.40;95.00
57108;DHT22;42987;52.916;6.542;2023-07-02T12:57:29;19.30;95.60
57108;DHT22;42987;52.916;6.542;2023-07-02T12:59:56;19.20;95.60
57108;DHT22;42987;52.916;6.542;2023-07-02T13:02:22;19.20;97.20
57108;DHT22;42987;52.916;6.542;2023-07-02T13:04:49;19.20;97.70
57108;DHT22;42987;52.916;6.542;2023-07-02T13:07:15;19.20;98.30
57108;DHT22;42987;52.916;6.542;2023-07-02T13:09:41;19.40;99.40
57108;DHT22;42987;52.916;6.542;2023-07-02T13:12:07;19.70;99.70
57108;DHT22;42987;52.916;6.542;2023-07-02T13:14:34;19.90;97.80
57108;DHT22;42987;52.916;6.542;2023-07-02T13:17:00;20.00;97.00
57108;DHT22;42987;52.916;6.542;2023-07-02T13:19:26;20.00;94.50
57108;DHT22;42987;52.916;6.542;2023-07-02T13:21:52;20.00;94.20
57108;DHT22;42987;52.916;6.542;2023-07-02T13:24:17;20.00;92.80
57108;DHT22;42987;52.916;6.542;2023-07-02T13:26:43;20.00;91.70
57108;DHT22;42987;52.916;6.542;2023-07-02T13:29:09;20.00;91.10
57108;DHT22;42987;52.916;6.542;2023-07-02T13:31:35;20.00;90.20
57108;DHT22;42987;52.916;6.542;2023-07-02T13:34:01;19.90;91.80
57108;DHT22;42987;52.916;6.542;2023-07-02T13:36:26;19.80;91.20
57108;DHT22;42987;52.916;6.542;2023-07-02T13:38:55;19.70;89.70
57108;DHT22;42987;52.916;6.542;2023-07-02T13:41:21;19.60;89.30
57108;DHT22;42987;52.916;6.542;2023-07-02T13:43:47;19.50;89.40
57108;DHT22;42987;52.916;6.542;2023-07-02T13:46:13;19.50;90.30
57108;DHT22;42987;52.916;6.542;2023-07-02T13:48:39;19.50;92.20
57108;DHT22;42987;52.916;6.542;2023-07-02T13:51:05;19.90;91.00
57108;DHT22;42987;52.916;6.542;2023-07-02T13:53:31;20.20;87.70
57108;DHT22;42987;52.916;6.542;2023-07-02T13:55:57;20.60;81.80
57108;DHT22;42987;52.916;6.542;2023-07-02T13:58:23;20.80;78.50
57108;DHT22;42987;52.916;6.542;2023-07-02T14:00:49;20.80;76.10
57108;DHT22;42987;52.916;6.542;2023-07-02T14:03:15;20.60;77.40
57108;DHT22;42987;52.916;6.542;2023-07-02T14:05:41;20.50;80.30
57108;DHT22;42987;52.916;6.542;2023-07-02T14:08:07;20.50;80.50
57108;DHT22;42987;52.916;6.542;2023-07-02T14:10:34;20.40;81.10
57108;DHT22;42987;52.916;6.542;2023-07-02T14:13:00;20.30;82.30
57108;DHT22;42987;52.916;6.542;2023-07-02T14:15:25;20.20;82.00
57108;DHT22;42987;52.916;6.542;2023-07-02T14:17:53;20.10;81.00
57108;DHT22;42987;52.916;6.542;2023-07-02T14:20:19;20.00;82.30
57108;DHT22;42987;52.916;6.542;2023-07-02T14:22:45;20.00;85.00
57108;DHT22;42987;52.916;6.542;2023-07-02T14:25:11;20.20;86.20
57108;DHT22;42987;52.916;6.542;2023-07-02T14:27:37;20.30;85.20
57108;DHT22;42987;52.916;6.542;2023-07-02T14:30:03;20.30;83.20
57108;DHT22;42987;52.916;6.542;2023-07-02T14:32:33;20.50;80.70
57108;DHT22;42987;52.916;6.542;2023-07-02T14:35:01;20.60;72.60
57108;DHT22;42987;52.916;6.542;2023-07-02T14:37:27;20.40;69.20
57108;DHT22;42987;52.916;6.542;2023-07-02T14:39:52;20.20;72.00
57108;DHT22;42987;52.916;6.542;2023-07-02T14:42:18;20.10;76.70
57108;DHT22;42987;52.916;6.542;2023-07-02T14:44:44;20.20;77.90
57108;DHT22;42987;52.916;6.542;2023-07-02T14:47:10;20.20;77.20
57108;DHT22;42987;52.916;6.542;2023-07-02T14:49:36;20.10;77.80
57108;DHT22;42987;52.916;6.542;2023-07-02T14:52:03;20.00;76.90
57108;DHT22;42987;52.916;6.542;2023-07-02T14:54:28;19.90;79.20
57108;DHT22;42987;52.916;6.542;2023-07-02T14:56:54;19.90;80.30
57108;DHT22;42987;52.916;6.542;2023-07-02T14:59:20;19.80;80.50
57108;DHT22;42987;52.916;6.542;2023-07-02T15:01:46;19.70;81.20
57108;DHT22;42987;52.916;6.542;2023-07-02T15:04:11;19.60;78.80
57108;DHT22;42987;52.916;6.542;2023-07-02T15:06:37;19.50;80.60
57108;DHT22;42987;52.916;6.542;2023-07-02T15:09:03;19.50;81.20
57108;DHT22;42987;52.916;6.542;2023-07-02T15:11:29;19.50;81.20
57108;DHT22;42987;52.916;6.542;2023-07-02T15:13:54;19.40;81.00
57108;DHT22;42987;52.916;6.542;2023-07-02T15:16:20;19.40;82.20
57108;DHT22;42987;52.916;6.542;2023-07-02T15:18:47;19.40;80.70
57108;DHT22;42987;52.916;6.542;2023-07-02T15:21:12;19.40;82.90
57108;DHT22;42987;52.916;6.542;2023-07-02T15:23:39;19.40;80.90
57108;DHT22;42987;52.916;6.542;2023-07-02T15:26:06;19.40;81.40
57108;DHT22;42987;52.916;6.542;2023-07-02T15:28:32;19.40;82.00
57108;DHT22;42987;52.916;6.542;2023-07-02T15:31:05;19.30;80.90
57108;DHT22;42987;52.916;6.542;2023-07-02T15:33:35;19.30;79.80
57108;DHT22;42987;52.916;6.542;2023-07-02T15:36:03;19.50;80.90